Time;durP1;ratioP1;P1;durP2;ratioP2;P2;SDS_P1;SDS_P2;PMS_P1;PMS_P2;Temp;Humidity;BMP_temperature;BMP_pressure;BME280_temperature;BME280_humidity;BME280_pressure;Samples;Min_cycle;Max_cycle;Signal;HPM_P1;HPM_P2
2022/09/01 00:01:40;;;;;;;;;;;20.90;44.90;;;19.22;48.73;101964.09;12253805;19;20348;-85
2022/09/01 00:05:43;;;;;;;;;;;21.30;45.10;;;19.12;48.42;101946.31;12254988;19;19918;-86
2022/09/01 00:09:44;;;;;;;;;;;20.90;45.00;;;19.27;48.66;101963.75;12254033;19;20279;-85
2022/09/01 00:13:46;;;;;;;;;;;21.30;45.20;;;19.08;48.54;101934.28;12254814;19;19918;-85
2022/09/01 00:17:48;;;;;;;;;;;20.90;45.00;;;18.98;48.58;101920.84;12252611;19;19914;-84
2022/09/01 00:21:50;;;;;;;;;;;20.90;44.90;;;19.15;48.66;101944.31;12255229;19;19955;-86
2022/09/01 00:25:52;;;;;;;;;;;21.30;45.10;;;19.17;48.66;101947.72;12251709;19;19935;-85
2022/09/01 00:29:54;;;;;;;;;;;21.00;44.90;;;19.09;48.47;101934.19;12252175;19;19934;-84
2022/09/01 00:33:55;;;;;;;;;;;20.90;44.80;;;19.17;48.83;101957.44;12254955;19;19934;-85
2022/09/01 00:37:57;;;;;;;;;;;20.90;45.20;;;19.13;48.53;101950.69;12250541;19;19914;-85
2022/09/01 00:41:59;;;;;;;;;;;20.90;44.80;;;19.07;48.68;101946.69;12253654;19;20356;-84
2022/09/01 00:46:01;;;;;;;;;;;20.90;44.80;;;19.02;48.86;101946.16;12253193;19;19918;-84
2022/09/01 00:50:05;;;;;;;;;;;20.90;44.80;;;19.10;48.74;101956.19;12253581;19;19921;-84
2022/09/01 00:54:10;;;;;;;;;;;20.80;44.80;;;19.08;48.93;101953.66;12252401;19;19914;-85
2022/09/01 00:58:12;;;;;;;;;;;20.80;44.80;;;18.96;48.69;101939.50;12253783;19;19960;-84
2022/09/01 01:02:14;;;;;;;;;;;20.70;44.90;;;18.97;48.63;101940.34;12265741;19;19940;-84
2022/09/01 01:06:18;;;;;;;;;;;20.90;44.90;;;19.02;48.72;101954.09;12262824;19;19926;-84
2022/09/01 01:10:21;;;;;;;;;;;20.80;44.90;;;18.98;48.85;101936.72;12264947;19;19941;-84
2022/09/01 01:14:22;;;;;;;;;;;20.90;44.90;;;19.00;48.85;101948.06;12263324;19;19936;-85
2022/09/01 01:18:24;;;;;;;;;;;20.80;44.90;;;18.60;48.79;101886.47;12259940;19;19915;-85
2022/09/01 01:23:07;;;;;;;;;;;20.70;44.90;;;19.00;48.72;101945.41;12260147;19;19941;-85
2022/09/01 01:27:11;;;;;;;;;;;20.80;44.90;;;18.86;48.89;101927.88;12264850;19;19915;-84
2022/09/01 01:31:17;;;;;;;;;;;20.70;45.00;;;18.87;48.67;101934.84;12263569;19;20313;-84
2022/09/01 01:35:20;;;;;;;;;;;20.70;45.00;;;18.29;48.83;101849.81;12263408;19;20329;-85
2022/09/01 01:39:24;;;;;;;;;;;20.70;45.40;;;18.72;48.92;101926.16;12259568;19;19940;-84
2022/09/01 01:43:27;;;;;;;;;;;20.60;45.00;;;18.27;48.94;101850.88;12262307;19;19923;-86
2022/09/01 01:47:29;;;;;;;;;;;20.60;45.10;;;18.36;49.04;101866.09;12261567;19;19938;-84
2022/09/01 01:51:31;;;;;;;;;;;20.60;45.20;;;18.79;49.01;101929.25;12262573;19;19923;-85
2022/09/01 01:55:35;;;;;;;;;;;20.60;45.10;;;18.81;48.84;101932.63;12261581;19;19918;-84
2022/09/01 01:59:39;;;;;;;;;;;20.50;45.20;;;18.78;49.03;101927.56;12261203;19;19914;-85
2022/09/01 02:03:41;;;;;;;;;;;20.90;45.30;;;18.40;48.88;101872.88;12261363;19;19934;-85
2022/09/01 02:07:42;;;;;;;;;;;20.60;45.20;;;18.74;49.18;101928.69;12257006;19;19922;-85
2022/09/01 02:11:44;;;;;;;;;;;20.50;45.50;;;18.73;48.89;101927.00;12260789;19;19927;-84
2022/09/01 02:15:52;;;;;;;;;;;20.60;45.60;;;18.75;48.88;101930.44;12260208;19;19938;-85
2022/09/01 02:19:56;;;;;;;;;;;20.60;45.30;;;18.67;49.13;101924.81;12261177;19;19978;-84
2022/09/01 02:24:00;;;;;;;;;;;20.50;45.20;;;18.71;49.00;101934.19;12259977;19;19930;-84
2022/09/01 02:28:08;;;;;;;;;;;20.60;45.30;;;18.39;49.16;101881.75;12257359;19;19915;-84
2022/09/01 02:32:10;;;;;;;;;;;20.70;45.40;;;18.47;48.91;101900.59;12259194;19;19915;-84
2022/09/01 02:36:14;;;;;;;;;;;20.50;45.40;;;18.65;49.06;101916.13;12258626;19;19943;-84
2022/09/01 02:40:15;;;;;;;;;;;20.40;45.30;;;18.57;48.94;101914.84;12257338;19;19970;-85
2022/09/01 02:44:20;;;;;;;;;;;20.40;45.30;;;18.32;49.19;101881.31;12260092;19;19914;-84
2022/09/01 02:48:34;;;;;;;;;;;20.40;45.70;;;18.48;49.39;101919.94;12256197;19;19919;-84
2022/09/01 02:52:36;;;;;;;;;;;20.30;45.30;;;18.49;49.39;101927.75;12256374;19;19979;-84
2022/09/01 02:56:38;;;;;;;;;;;20.30;45.30;;;18.45;49.32;101926.28;12255265;19;19911;-84
2022/09/01 03:00:40;;;;;;;;;;;20.20;45.30;;;18.33;49.44;101913.91;12258149;19;20254;-85
2022/09/01 03:04:42;;;;;;;;;;;20.10;45.30;;;18.29;49.37;101925.66;12255736;19;20024;-84
2022/09/01 03:08:45;;;;;;;;;;;20.10;45.40;;;18.12;49.56;101906.50;12252231;19;19954;-85
2022/09/01 03:12:46;;;;;;;;;;;20.10;45.50;;;18.06;49.55;101908.72;12255406;19;19911;-84
2022/09/01 03:16:48;;;;;;;;;;;19.90;45.50;;;18.09;49.25;101927.88;12254020;19;19915;-85
2022/09/01 03:20:49;;;;;;;;;;;19.90;45.50;;;18.05;49.49;101922.88;12255610;19;19927;-85
2022/09/01 03:24:51;;;;;;;;;;;19.90;45.50;;;17.95;49.30;101920.00;12258446;19;19967;-83
2022/09/01 03:28:52;;;;;;;;;;;19.80;45.60;;;17.80;49.59;101905.19;12246576;19;19950;-84
2022/09/01 03:32:54;;;;;;;;;;;19.80;45.60;;;17.83;49.46;101910.28;12249216;19;19907;-83
2022/09/01 03:36:56;;;;;;;;;;;19.70;45.60;;;17.76;49.47;101898.38;12245747;19;19918;-83
2022/09/01 03:41:04;;;;;;;;;;;19.80;45.70;;;17.64;49.59;101890.31;12249185;19;19911;-83
2022/09/01 03:45:07;;;;;;;;;;;19.70;45.60;;;17.51;49.57;101884.16;12248882;19;19915;-84
2022/09/01 03:49:13;;;;;;;;;;;19.60;45.60;;;17.65;49.79;101915.78;12246667;19;19994;-83
2022/09/01 03:53:18;;;;;;;;;;;19.50;45.70;;;17.68;49.66;101925.31;12249195;19;19933;-83
2022/09/01 03:57:22;;;;;;;;;;;19.90;46.00;;;17.55;49.80;101896.22;12248045;19;19926;-83
2022/09/01 04:01:24;;;;;;;;;;;19.50;45.90;;;17.49;49.83;101901.91;12249003;19;19946;-83
2022/09/01 04:05:29;;;;;;;;;;;19.50;45.90;;;17.58;49.71;101918.94;12248978;19;19918;-84
2022/09/01 04:09:34;;;;;;;;;;;19.40;45.80;;;17.36;49.76;101909.78;12246366;19;20261;-83
2022/09/01 04:13:38;;;;;;;;;;;19.40;45.80;;;17.31;49.71;101918.94;12249853;19;19926;-84
2022/09/01 04:22:01;;;;;;;;;;;19.30;45.70;;;17.18;49.72;101919.72;12252243;19;19918;-83
2022/09/01 04:26:13;;;;;;;;;;;19.10;45.70;;;17.06;49.73;101917.03;12252853;19;19915;-84
2022/09/01 04:30:16;;;;;;;;;;;19.20;45.80;;;17.01;49.70;101914.66;12254027;19;19923;-85
2022/09/01 04:34:22;;;;;;;;;;;19.00;45.80;;;16.89;49.87;101907.53;12247875;19;19926;-84
2022/09/01 04:38:24;;;;;;;;;;;18.90;45.80;;;16.81;49.70;101921.22;12245395;19;19956;-84
2022/09/01 04:42:31;;;;;;;;;;;18.80;45.80;;;16.74;49.72;101922.47;12249953;19;19927;-85
2022/09/01 04:46:41;;;;;;;;;;;18.80;45.80;;;16.67;49.65;101935.22;12246763;19;19918;-84
2022/09/01 04:50:46;;;;;;;;;;;18.70;45.80;;;16.54;49.89;101923.72;12246848;19;19929;-84
2022/09/01 04:54:55;;;;;;;;;;;18.60;45.90;;;16.53;50.00;101938.72;12245111;19;20711;-84
2022/09/01 04:58:57;;;;;;;;;;;18.50;45.90;;;16.42;49.91;101935.00;12241575;19;19911;-84
2022/09/01 05:03:04;;;;;;;;;;;18.50;45.90;;;16.38;50.17;101929.91;12247437;19;19983;-85
2022/09/01 05:07:26;;;;;;;;;;;18.40;46.00;;;16.27;49.90;101919.19;12247413;19;19998;-85
2022/09/01 05:11:30;;;;;;;;;;;18.40;46.20;;;16.33;50.28;101924.06;12248954;19;19932;-85
2022/09/01 05:15:46;;;;;;;;;;;18.30;46.20;;;16.33;49.94;101923.22;12244293;19;19929;-85
2022/09/01 05:19:49;;;;;;;;;;;18.20;46.30;;;16.19;50.08;101900.34;12245975;19;19919;-86
2022/09/01 05:23:53;;;;;;;;;;;18.30;46.20;;;16.14;50.27;101905.03;12243518;19;19919;-86
2022/09/01 05:27:56;;;;;;;;;;;18.20;46.30;;;16.20;50.35;101909.09;12243354;19;19906;-85
2022/09/01 05:31:58;;;;;;;;;;;18.20;46.20;;;16.20;50.46;101909.94;12247619;19;19928;-85
2022/09/01 05:36:06;;;;;;;;;;;18.50;46.50;;;16.28;50.66;101928.81;12244061;19;19974;-86
2022/09/01 05:40:14;;;;;;;;;;;18.20;46.40;;;16.26;50.37;101927.19;12247816;19;20277;-86
2022/09/01 05:44:17;;;;;;;;;;;18.20;46.60;;;16.25;50.74;101917.56;12249054;19;19937;-85
2022/09/01 05:48:20;;;;;;;;;;;18.20;46.30;;;16.37;50.55;101936.16;12249119;19;20278;-85
2022/09/01 05:52:25;;;;;;;;;;;18.20;46.60;;;16.36;50.71;101936.22;12252169;19;20252;-85
2022/09/01 05:56:29;;;;;;;;;;;18.20;46.70;;;16.08;50.69;101872.00;12251857;19;19966;-85
2022/09/01 06:00:33;;;;;;;;;;;18.40;46.70;;;16.44;50.82;101928.69;12252374;19;20260;-85
2022/09/01 06:04:42;;;;;;;;;;;18.70;47.00;;;16.52;50.70;101926.44;12251660;19;19959;-85
2022/09/01 06:08:49;;;;;;;;;;;18.30;46.70;;;16.26;50.88;101877.97;12246853;19;19934;-85
2022/09/01 06:12:53;;;;;;;;;;;18.30;46.70;;;16.68;50.63;101928.16;12250593;19;19934;-85
2022/09/01 06:16:55;;;;;;;;;;;18.40;47.00;;;16.78;50.66;101930.16;12249629;19;19914;-85
2022/09/01 06:20:56;;;;;;;;;;;18.70;47.20;;;16.87;50.76;101925.25;12251482;19;19922;-86
2022/09/01 06:24:58;;;;;;;;;;;18.60;47.10;;;16.94;50.96;101916.84;12251148;19;20265;-86
2022/09/01 06:29:03;;;;;;;;;;;18.70;46.90;;;17.14;50.69;101933.22;12245762;19;20558;-85
2022/09/01 06:33:09;;;;;;;;;;;18.80;47.10;;;17.29;50.90;101947.25;12250170;19;19922;-84
2022/09/01 06:37:14;;;;;;;;;;;18.90;47.40;;;17.26;50.86;101929.81;12248352;19;19919;-85
2022/09/01 06:41:20;;;;;;;;;;;19.00;47.20;;;17.38;50.68;101938.72;12250653;19;20260;-85
2022/09/01 06:45:23;;;;;;;;;;;19.30;47.40;;;17.55;50.67;101948.19;12249208;19;19974;-84
2022/09/01 06:49:35;;;;;;;;;;;19.20;47.50;;;17.61;50.98;101937.25;12247291;19;19923;-84
2022/09/01 06:53:44;;;;;;;;;;;19.40;47.30;;;17.66;50.91;101927.19;12249354;19;19923;-85
2022/09/01 06:57:50;;;;;;;;;;;19.50;47.40;;;17.83;50.99;101942.00;12246252;19;19927;-85
2022/09/01 07:01:53;;;;;;;;;;;19.60;47.30;;;17.92;50.82;101938.72;12248674;19;19915;-85
2022/09/01 07:06:06;;;;;;;;;;;20.00;47.50;;;18.04;50.66;101950.28;12247530;19;19922;-85
2022/09/01 07:10:39;;;;;;;;;;;19.70;47.30;;;18.12;50.78;101946.16;12246748;19;20348;-85
2022/09/01 07:14:49;;;;;;;;;;;19.90;47.50;;;18.13;50.73;101934.63;12246148;19;19918;-84
2022/09/01 07:18:59;;;;;;;;;;;19.90;47.40;;;18.27;50.71;101941.63;12242380;19;19934;-85
2022/09/01 07:23:00;;;;;;;;;;;20.00;47.20;;;18.48;50.69;101952.53;12243482;19;19919;-85
2022/09/01 07:27:02;;;;;;;;;;;20.40;47.40;;;18.42;50.72;101926.50;12240521;19;19925;-84
2022/09/01 07:31:07;;;;;;;;;;;20.20;47.30;;;18.58;50.72;101935.06;12244703;19;20299;-85
2022/09/01 07:35:09;;;;;;;;;;;20.30;47.10;;;18.75;50.58;101946.31;12241364;19;19926;-85
2022/09/01 07:39:12;;;;;;;;;;;20.50;47.00;;;18.80;50.73;101933.59;12240172;19;19915;-85
2022/09/01 07:43:23;;;;;;;;;;;20.80;47.20;;;19.08;50.69;101947.50;12243353;19;19911;-85
2022/09/01 07:47:50;;;;;;;;;;;20.70;47.00;;;18.90;50.82;101880.84;12235583;19;20330;-85
2022/09/01 07:51:53;;;;;;;;;;;20.90;47.10;;;19.52;50.51;101940.78;12241642;19;19915;-84
2022/09/01 07:55:57;;;;;;;;;;;21.00;47.20;;;19.72;50.63;101945.50;12241108;19;19922;-85
2022/09/01 07:59:59;;;;;;;;;;;21.20;47.00;;;19.89;50.50;101947.72;12239236;19;19942;-85
2022/09/01 08:04:17;;;;;;;;;;;21.40;46.90;;;20.10;50.35;101952.38;12242614;19;19919;-85
2022/09/01 08:08:20;;;;;;;;;;;21.60;46.80;;;20.28;50.33;101961.59;12237610;19;19915;-85
2022/09/01 08:12:22;;;;;;;;;;;21.80;46.70;;;20.31;50.25;101940.13;12242263;19;19982;-85
2022/09/01 08:16:27;;;;;;;;;;;22.00;46.70;;;20.64;50.29;101970.34;12240182;19;19919;-84
2022/09/01 08:20:33;;;;;;;;;;;22.10;46.20;;;20.68;50.26;101947.03;12240499;19;19922;-85
2022/09/01 08:24:53;;;;;;;;;;;22.40;46.30;;;20.92;50.16;101961.03;12240908;19;19930;-85
2022/09/01 08:28:56;;;;;;;;;;;22.40;46.50;;;21.06;50.16;101957.28;12237360;19;19981;-85
2022/09/01 08:33:10;;;;;;;;;;;22.60;46.40;;;21.25;49.90;101950.47;12241531;19;19929;-86
2022/09/01 08:37:12;;;;;;;;;;;22.80;46.00;;;21.35;49.78;101954.09;12239618;19;19946;-85
2022/09/01 08:41:24;;;;;;;;;;;23.00;46.10;;;21.54;49.65;101970.25;12242115;19;19918;-84
2022/09/01 08:45:47;;;;;;;;;;;23.10;45.90;;;21.64;49.54;101968.53;12242035;19;19922;-86
2022/09/01 08:49:50;;;;;;;;;;;23.20;45.50;;;21.65;49.42;101948.09;12240049;19;19942;-85
2022/09/01 08:54:23;;;;;;;;;;;23.60;45.40;;;21.95;49.78;101965.97;12240514;19;19915;-84
2022/09/01 08:58:29;;;;;;;;;;;23.50;45.00;;;22.05;48.97;101950.09;12236287;19;19919;-84
2022/09/01 09:03:30;;;;;;;;;;;23.70;44.90;;;22.13;49.01;101954.78;12239285;19;19974;-85
2022/09/01 09:07:50;;;;;;;;;;;23.70;44.60;;;22.24;48.77;101960.88;12238417;19;19918;-85
2022/09/01 09:12:24;;;;;;;;;;;23.80;44.80;;;22.35;48.93;101954.66;12242769;19;19921;-85
2022/09/01 09:16:38;;;;;;;;;;;23.90;45.10;;;22.46;49.26;101949.25;12237307;19;20885;-85
2022/09/01 09:20:41;;;;;;;;;;;24.00;44.00;;;22.60;48.66;101953.41;12248493;19;19930;-84
2022/09/01 09:24:51;;;;;;;;;;;24.20;44.90;;;22.74;48.41;101961.03;12252598;19;19926;-84
2022/09/01 09:28:53;;;;;;;;;;;24.30;43.80;;;22.79;48.45;101946.44;12247537;19;19923;-85
2022/09/01 09:33:03;;;;;;;;;;;24.40;44.10;;;22.91;48.25;101953.38;12250468;19;19963;-85
2022/09/01 09:37:26;;;;;;;;;;;24.50;45.00;;;23.01;48.18;101948.94;12248498;19;19940;-85
2022/09/01 09:41:28;;;;;;;;;;;24.60;43.90;;;23.14;48.36;101943.34;12251773;19;20274;-84
2022/09/01 09:45:33;;;;;;;;;;;24.70;43.30;;;23.28;48.06;101945.63;12249858;19;19990;-84
2022/09/01 09:49:34;;;;;;;;;;;24.80;43.90;;;23.33;47.69;101945.19;12251333;19;20028;-84
2022/09/01 09:53:35;;;;;;;;;;;24.90;44.30;;;23.36;47.64;101951.13;12249384;19;19946;-85
2022/09/01 09:57:40;;;;;;;;;;;25.00;42.70;;;23.34;47.55;101945.06;12247407;19;19918;-85
2022/09/01 10:01:41;;;;;;;;;;;25.00;43.50;;;23.44;47.45;101941.56;12251217;19;19938;-84
2022/09/01 10:05:47;;;;;;;;;;;25.10;42.00;;;23.39;47.68;101932.19;12251766;19;20349;-85
2022/09/01 10:09:49;;;;;;;;;;;25.10;42.50;;;23.59;47.54;101937.50;12252904;19;19922;-85
2022/09/01 10:13:52;;;;;;;;;;;25.20;42.90;;;23.67;47.58;101942.16;12250749;19;19943;-85
2022/09/01 10:17:57;;;;;;;;;;;25.30;42.60;;;23.69;47.53;101938.38;12248992;19;19918;-84
2022/09/01 10:21:59;;;;;;;;;;;25.30;42.40;;;23.84;47.50;101942.34;12251774;19;19982;-85
2022/09/01 10:26:12;;;;;;;;;;;25.40;43.00;;;23.85;47.38;101928.00;12250326;19;19924;-85
2022/09/01 10:30:17;;;;;;;;;;;25.50;43.20;;;23.66;47.06;101893.31;12251327;19;19915;-85
2022/09/01 10:34:20;;;;;;;;;;;25.60;42.50;;;23.59;46.80;101889.50;12250616;19;19914;-85
2022/09/01 10:38:28;;;;;;;;;;;25.60;42.50;;;23.47;46.75;101872.84;12248835;19;20260;-85
2022/09/01 10:42:29;;;;;;;;;;;25.60;41.70;;;23.96;46.88;101928.84;12250155;19;19923;-85
2022/09/01 10:46:39;;;;;;;;;;;25.60;43.20;;;24.12;46.63;101931.75;12250593;19;19926;-85
2022/09/01 10:50:41;;;;;;;;;;;25.70;43.60;;;24.14;46.71;101918.25;12250391;19;19918;-86
2022/09/01 10:54:42;;;;;;;;;;;25.80;42.70;;;24.28;46.44;101929.31;12252659;19;19918;-84
2022/09/01 10:59:02;;;;;;;;;;;25.80;40.60;;;24.21;46.59;101925.53;12249878;19;19926;-85
2022/09/01 11:03:12;;;;;;;;;;;25.90;42.40;;;24.32;46.89;101927.19;12249607;19;19929;-85
2022/09/01 11:07:17;;;;;;;;;;;25.90;43.10;;;24.43;46.68;101926.16;12251401;19;20376;-85
2022/09/01 11:11:46;;;;;;;;;;;25.90;41.90;;;24.46;45.96;101924.06;12248463;19;20328;-86
2022/09/01 11:15:47;;;;;;;;;;;26.00;43.00;;;24.37;46.42;101900.91;12254767;19;19923;-85
2022/09/01 11:20:08;;;;;;;;;;;26.20;42.40;;;24.49;46.14;101928.28;12252588;19;19921;-85
2022/09/01 11:24:41;;;;;;;;;;;26.10;42.80;;;24.54;46.32;101923.34;12249087;19;19919;-84
2022/09/01 11:28:42;;;;;;;;;;;26.10;40.80;;;24.49;46.33;101918.47;12246831;19;20321;-85
2022/09/01 11:32:47;;;;;;;;;;;26.10;41.00;;;24.35;45.55;101910.88;12249060;19;19919;-85
2022/09/01 11:36:57;;;;;;;;;;;26.30;41.80;;;24.22;45.69;101903.22;12245284;19;19911;-85
2022/09/01 11:40:59;;;;;;;;;;;26.00;41.90;;;24.22;46.14;101915.69;12244542;19;19921;-84
2022/09/01 11:45:29;;;;;;;;;;;25.90;42.30;;;24.07;46.41;101905.47;12246901;19;19914;-85
2022/09/01 11:49:45;;;;;;;;;;;25.90;40.70;;;24.04;45.78;101904.94;12247751;19;19926;-85
2022/09/01 11:53:46;;;;;;;;;;;25.80;41.00;;;24.05;45.50;101917.28;12246169;19;19929;-84
2022/09/01 11:57:48;;;;;;;;;;;25.70;42.60;;;24.03;45.84;101876.53;12245069;19;19907;-84
2022/09/01 12:01:56;;;;;;;;;;;25.90;41.90;;;24.35;45.93;101905.53;12245674;19;19911;-84
2022/09/01 12:06:02;;;;;;;;;;;25.80;41.90;;;24.52;45.25;101909.31;12244624;19;19939;-85
2022/09/01 12:10:15;;;;;;;;;;;25.90;41.60;;;24.62;45.13;101919.94;12245844;19;19927;-84
2022/09/01 12:14:21;;;;;;;;;;;26.00;42.60;;;24.45;45.29;101901.03;12246059;19;19906;-85
2022/09/01 12:18:26;;;;;;;;;;;26.00;40.40;;;24.43;45.38;101904.81;12244030;19;20329;-86
2022/09/01 12:22:28;;;;;;;;;;;26.00;41.10;;;24.41;45.38;101904.09;12237885;19;19915;-85
2022/09/01 12:26:29;;;;;;;;;;;26.00;41.20;;;24.36;45.41;101898.34;12241125;19;20341;-86
2022/09/01 12:30:34;;;;;;;;;;;26.00;41.30;;;24.29;45.43;101893.59;12243090;19;19934;-84
2022/09/01 12:34:37;;;;;;;;;;;26.00;41.60;;;24.21;45.13;101890.81;12242006;19;19929;-84
2022/09/01 12:38:39;;;;;;;;;;;26.10;41.60;;;24.04;44.91;101876.41;12237865;19;19919;-86
2022/09/01 12:42:48;;;;;;;;;;;25.90;42.00;;;23.96;45.04;101864.78;12242848;19;20392;-86
2022/09/01 12:46:49;;;;;;;;;;;25.90;38.40;;;24.06;45.23;101882.47;12243470;19;19964;-85
2022/09/01 12:50:51;;;;;;;;;;;26.00;41.30;;;24.11;44.81;101884.66;12245105;19;19921;-85
2022/09/01 12:54:58;;;;;;;;;;;25.80;41.50;;;24.16;44.67;101893.09;12252684;19;19915;-86
2022/09/01 12:59:12;;;;;;;;;;;25.80;39.40;;;24.00;44.84;101892.84;12251495;19;19940;-86
2022/09/01 13:03:16;;;;;;;;;;;25.70;38.40;;;23.74;44.41;101849.97;12255591;19;19961;-85
2022/09/01 13:07:18;;;;;;;;;;;25.90;41.40;;;23.82;44.47;101874.09;12252572;19;19923;-85
2022/09/01 13:11:20;;;;;;;;;;;25.60;41.10;;;23.87;44.62;101871.81;12259175;19;20324;-87
2022/09/01 13:15:25;;;;;;;;;;;25.60;41.20;;;23.90;44.43;101876.00;12255633;19;19923;-88
2022/09/01 13:19:26;;;;;;;;;;;25.50;40.20;;;23.97;44.29;101888.66;12252585;19;19918;-86
2022/09/01 13:23:27;;;;;;;;;;;25.50;41.10;;;23.62;44.58;101825.22;12257182;19;19948;-86
2022/09/01 13:27:29;;;;;;;;;;;25.60;41.50;;;23.92;44.19;101874.88;12253241;19;19932;-85
2022/09/01 13:31:31;;;;;;;;;;;25.50;38.90;;;23.87;44.28;101850.47;12256000;19;20467;-86
2022/09/01 13:35:32;;;;;;;;;;;25.90;41.10;;;23.92;44.04;101853.53;12257944;19;19942;-84
2022/09/01 13:39:34;;;;;;;;;;;25.60;40.50;;;24.08;44.30;101860.94;12252228;19;20672;-85
2022/09/01 13:43:36;;;;;;;;;;;25.60;40.90;;;24.18;44.03;101866.25;12256024;19;20337;-85
2022/09/01 13:47:40;;;;;;;;;;;25.60;40.70;;;24.23;44.34;101869.34;12253354;19;19918;-84
2022/09/01 13:51:42;;;;;;;;;;;25.80;40.10;;;24.16;44.27;101849.53;12250808;19;19918;-85
2022/09/01 13:55:43;;;;;;;;;;;25.80;40.60;;;24.36;44.12;101877.00;12253978;19;19926;-85
2022/09/01 13:59:48;;;;;;;;;;;25.90;40.90;;;24.34;43.89;101862.97;12250698;19;19915;-86
2022/09/01 14:03:49;;;;;;;;;;;25.90;40.90;;;24.38;43.63;101870.53;12256352;19;19933;-86
2022/09/01 14:07:51;;;;;;;;;;;25.90;41.50;;;24.23;43.68;101856.00;12251020;19;19914;-86
2022/09/01 14:11:54;;;;;;;;;;;26.10;40.50;;;24.18;43.82;101848.41;12251555;19;19939;-89
2022/09/01 14:15:56;;;;;;;;;;;25.70;40.00;;;23.87;43.56;101798.94;12265455;19;19938;-87
2022/09/01 14:19:58;;;;;;;;;;;25.80;39.80;;;23.72;43.48;101772.72;12264428;19;19922;-88
2022/09/01 14:24:00;;;;;;;;;;;25.80;40.50;;;24.28;43.94;101865.25;12265785;19;19926;-87
2022/09/01 14:28:01;;;;;;;;;;;25.80;40.50;;;23.85;43.65;101770.59;12261539;19;19907;-88
2022/09/01 14:32:03;;;;;;;;;;;25.90;40.60;;;23.84;43.24;101765.38;12263255;19;19952;-87
2022/09/01 14:36:06;;;;;;;;;;;25.80;41.00;;;24.23;43.21;101842.66;12260404;19;19946;-86
2022/09/01 14:40:10;;;;;;;;;;;25.80;40.20;;;24.19;43.24;101827.88;12254527;19;20345;-86
2022/09/01 14:44:11;;;;;;;;;;;25.80;40.10;;;24.11;43.31;101814.44;12252393;19;20003;-85
2022/09/01 14:48:15;;;;;;;;;;;25.90;40.40;;;24.21;43.40;101823.25;12249442;19;20295;-86
2022/09/01 14:52:17;;;;;;;;;;;25.80;40.50;;;24.27;43.24;101834.16;12252281;19;20237;-85
2022/09/01 14:56:20;;;;;;;;;;;25.80;40.20;;;24.26;43.52;101824.50;12249070;19;19930;-86
2022/09/01 15:00:24;;;;;;;;;;;25.80;40.00;;;24.26;43.93;101815.66;12252340;19;20340;-87
2022/09/01 15:04:26;;;;;;;;;;;25.90;40.00;;;24.36;43.40;101818.25;12252245;19;19919;-86
2022/09/01 15:08:28;;;;;;;;;;;25.90;40.00;;;24.32;43.10;101806.22;12248225;19;19974;-86
2022/09/01 15:12:29;;;;;;;;;;;25.90;40.20;;;24.34;43.49;101804.22;12249075;19;19926;-86
2022/09/01 15:16:34;;;;;;;;;;;26.00;40.60;;;24.25;43.46;101801.47;12246036;19;19926;-86
2022/09/01 15:20:47;;;;;;;;;;;25.90;40.30;;;23.80;43.44;101718.66;12250762;19;19923;-86
2022/09/01 15:24:49;;;;;;;;;;;25.90;40.90;;;24.34;42.87;101809.56;12248661;19;19910;-86
2022/09/01 15:28:50;;;;;;;;;;;26.00;40.40;;;24.15;43.33;101773.97;12244790;19;19982;-86
2022/09/01 15:32:53;;;;;;;;;;;25.90;40.70;;;24.31;42.67;101809.88;12249639;19;19923;-87
2022/09/01 15:36:55;;;;;;;;;;;25.90;40.70;;;24.14;43.00;101799.00;12249673;19;19936;-86
2022/09/01 15:40:56;;;;;;;;;;;26.10;40.70;;;24.24;43.40;101815.78;12250402;19;19915;-86
2022/09/01 15:44:57;;;;;;;;;;;26.00;40.60;;;24.19;43.40;101820.72;12248738;19;19948;-87
2022/09/01 15:49:01;;;;;;;;;;;25.80;40.20;;;24.03;42.95;101804.50;12247180;19;19921;-88
2022/09/01 15:53:07;;;;;;;;;;;25.80;40.70;;;24.03;42.97;101812.50;12248756;19;19918;-86
2022/09/01 15:57:08;;;;;;;;;;;25.70;40.40;;;23.60;43.30;101763.19;12247936;19;19919;-87
2022/09/01 16:01:10;;;;;;;;;;;25.60;40.20;;;23.75;42.94;101799.13;12245589;19;19947;-87
2022/09/01 16:05:11;;;;;;;;;;;25.60;40.40;;;23.74;43.52;101808.13;12248686;19;19923;-87
2022/09/01 16:09:13;;;;;;;;;;;25.40;40.40;;;23.49;43.19;101785.50;12247714;19;19919;-86
2022/09/01 16:13:14;;;;;;;;;;;25.40;39.80;;;23.61;43.22;101815.53;12249776;19;19922;-86
2022/09/01 16:17:36;;;;;;;;;;;25.30;40.10;;;23.52;43.60;101814.59;12248710;19;20025;-86
2022/09/01 16:21:47;;;;;;;;;;;25.20;40.10;;;23.47;43.16;101810.66;12248773;19;19923;-88
2022/09/01 16:25:49;;;;;;;;;;;25.10;40.10;;;23.39;43.66;101808.72;12248682;19;20647;-88
2022/09/01 16:29:57;;;;;;;;;;;25.10;40.20;;;23.30;43.23;101798.88;12249226;19;19923;-89
2022/09/01 16:34:16;;;;;;;;;;;25.00;40.20;;;23.23;43.56;101798.63;12249548;19;20337;-89
2022/09/01 16:38:31;;;;;;;;;;;25.00;40.30;;;23.38;43.25;101812.34;12247130;19;20253;-88
2022/09/01 16:43:00;;;;;;;;;;;24.90;40.30;;;23.35;43.51;101808.13;12245161;19;23088;-89
2022/09/01 16:47:26;;;;;;;;;;;24.90;40.40;;;23.35;43.22;101807.28;12247953;19;20344;-86
2022/09/01 16:51:37;;;;;;;;;;;24.90;40.60;;;23.30;43.24;101798.88;12247403;19;19929;-84
2022/09/01 16:56:06;;;;;;;;;;;24.80;40.40;;;23.10;43.29;101776.75;12248216;19;19919;-87
2022/09/01 17:00:12;;;;;;;;;;;24.80;40.30;;;23.10;43.49;101785.56;12247780;19;19919;-85
2022/09/01 17:04:36;;;;;;;;;;;24.80;40.30;;;23.21;43.56;101805.06;12245933;19;19919;-86
2022/09/01 17:08:58;;;;;;;;;;;24.80;40.40;;;23.10;43.60;101798.88;12245652;19;20241;-85
2022/09/01 17:13:19;;;;;;;;;;;24.70;40.50;;;23.08;43.28;101806.19;12247596;19;19926;-84
2022/09/01 17:17:29;;;;;;;;;;;24.70;40.40;;;22.97;43.21;101799.16;12243530;19;20337;-85
2022/09/01 17:21:35;;;;;;;;;;;24.70;40.50;;;22.93;43.51;101797.75;12244684;19;19941;-85
2022/09/01 17:25:48;;;;;;;;;;;24.60;40.50;;;22.59;43.64;101756.50;12245523;19;19911;-85
2022/09/01 17:29:52;;;;;;;;;;;24.50;40.40;;;22.77;43.35;101784.13;12243642;19;19923;-84
2022/09/01 17:34:05;;;;;;;;;;;24.50;40.50;;;22.96;43.28;101817.97;12245502;19;19931;-85
2022/09/01 17:38:12;;;;;;;;;;;24.50;40.50;;;22.97;43.64;101824.97;12240930;19;19915;-85
2022/09/01 17:42:31;;;;;;;;;;;24.50;40.50;;;22.87;43.46;101811.63;12254107;19;19927;-84
2022/09/01 17:46:55;;;;;;;;;;;24.50;40.60;;;22.85;43.43;101826.06;12251283;19;19960;-83
2022/09/01 17:51:05;;;;;;;;;;;24.40;40.50;;;22.79;43.67;101832.78;12256989;19;19915;-83
2022/09/01 17:55:19;;;;;;;;;;;24.40;40.50;;;22.73;43.60;101838.63;12256288;19;20296;-83
2022/09/01 17:59:32;;;;;;;;;;;24.30;40.50;;;22.64;43.45;101840.31;12255748;19;19975;-84
2022/09/01 18:03:50;;;;;;;;;;;24.30;40.60;;;22.56;43.51;101836.63;12254843;19;19911;-84
2022/09/01 18:08:11;;;;;;;;;;;24.20;40.70;;;22.49;43.66;101837.19;12252726;19;19978;-84
2022/09/01 18:12:16;;;;;;;;;;;24.20;40.80;;;22.35;43.64;101824.22;12252494;19;19919;-84
2022/09/01 18:16:22;;;;;;;;;;;24.10;40.80;;;22.25;43.82;101828.66;12251739;19;19922;-85
2022/09/01 18:20:28;;;;;;;;;;;24.00;40.80;;;22.29;43.52;101846.91;12252385;19;19939;-85
2022/09/01 18:24:45;;;;;;;;;;;24.00;40.80;;;22.02;44.06;101826.16;12251702;19;20352;-85
2022/09/01 18:28:50;;;;;;;;;;;23.90;40.70;;;21.97;43.96;101833.69;12249712;19;20709;-85
2022/09/01 18:33:04;;;;;;;;;;;23.80;40.70;;;21.86;43.81;101839.94;12251944;19;20441;-84